Time;durP1;ratioP1;P1;durP2;ratioP2;P2;SDS_P1;SDS_P2;PMS_P1;PMS_P2;Temp;Humidity;BMP_temperature;BMP_pressure;BME280_temperature;BME280_humidity;BME280_pressure;Samples;Min_cycle;Max_cycle;Signal;HPM_P1;HPM_P2
2022/07/31 00:01:37;;;;;;;13.53;4.27;;;18.70;46.60;;;;;;5016360;28;20464;-82
2022/07/31 00:04:04;;;;;;;7.40;4.00;;;18.70;47.40;;;;;;5017484;28;20855;-81
2022/07/31 00:06:31;;;;;;;5.90;3.90;;;18.50;47.40;;;;;;5016875;28;20481;-82
2022/07/31 00:08:57;;;;;;;6.20;3.30;;;18.60;46.70;;;;;;5016695;28;20464;-82
2022/07/31 00:11:25;;;;;;;9.57;4.53;;;18.60;47.30;;;;;;5017218;28;20450;-82
2022/07/31 00:13:52;;;;;;;13.33;4.30;;;18.50;48.50;;;;;;5025252;28;20497;-83
2022/07/31 00:16:19;;;;;;;10.17;4.33;;;18.50;48.60;;;;;;5023519;28;20976;-82
2022/07/31 00:18:46;;;;;;;7.33;4.47;;;18.50;48.20;;;;;;5023526;28;20454;-82
2022/07/31 00:21:13;;;;;;;7.77;4.10;;;18.60;46.40;;;;;;5025327;28;20475;-82
2022/07/31 00:23:40;;;;;;;9.40;4.00;;;18.60;46.80;;;;;;5024727;28;20992;-83
2022/07/31 00:26:07;;;;;;;8.73;4.20;;;18.60;45.80;;;;;;5025438;28;20743;-82
2022/07/31 00:28:36;;;;;;;6.10;3.80;;;18.60;45.60;;;;;;5027109;28;20457;-82
2022/07/31 00:31:03;;;;;;;9.60;5.33;;;18.60;46.10;;;;;;5027471;28;20450;-83
2022/07/31 00:33:30;;;;;;;8.80;4.60;;;18.40;47.20;;;;;;5027685;28;20514;-83
2022/07/31 00:35:56;;;;;;;9.13;5.30;;;18.40;48.00;;;;;;5027233;28;20453;-82
2022/07/31 00:38:24;;;;;;;9.03;4.40;;;18.30;48.80;;;;;;5027462;28;20544;-82
2022/07/31 00:40:51;;;;;;;12.07;5.23;;;18.30;49.10;;;;;;5026167;28;20587;-82
2022/07/31 00:43:18;;;;;;;9.13;4.60;;;18.20;49.30;;;;;;5025340;28;20473;-82
2022/07/31 00:45:46;;;;;;;9.03;4.43;;;18.10;49.10;;;;;;5024783;28;20828;-82
2022/07/31 00:48:13;;;;;;;12.37;4.80;;;18.10;48.90;;;;;;5020319;28;20484;-82
2022/07/31 00:50:40;;;;;;;7.40;4.70;;;18.00;49.40;;;;;;5020863;28;20464;-81
2022/07/31 00:53:07;;;;;;;8.07;4.73;;;18.00;49.80;;;;;;5021182;28;20866;-82
2022/07/31 00:55:33;;;;;;;7.60;4.27;;;17.90;51.30;;;;;;5021226;28;20463;-82
2022/07/31 00:58:00;;;;;;;9.27;4.87;;;17.80;51.20;;;;;;5021978;28;20458;-82
2022/07/31 01:00:27;;;;;;;7.30;4.27;;;17.70;51.10;;;;;;5025013;28;20981;-82
2022/07/31 01:02:55;;;;;;;8.97;4.83;;;17.70;51.10;;;;;;5027282;28;20852;-83
2022/07/31 01:05:22;;;;;;;8.83;4.67;;;17.70;51.10;;;;;;5026545;28;20517;-82
2022/07/31 01:07:49;;;;;;;9.90;5.60;;;17.70;51.10;;;;;;5026480;28;21044;-83
2022/07/31 01:10:25;;;;;;;7.57;4.53;;;17.60;51.00;;;;;;5026116;28;20944;-82
2022/07/31 01:12:56;;;;;;;7.10;5.33;;;17.60;51.00;;;;;;5022861;28;20472;-82
2022/07/31 01:15:24;;;;;;;12.10;6.07;;;17.50;52.60;;;;;;5024273;28;20460;-82
2022/07/31 01:17:52;;;;;;;8.60;5.30;;;17.50;53.20;;;;;;5024076;28;20555;-82
2022/07/31 01:20:21;;;;;;;8.13;4.90;;;17.40;54.10;;;;;;5025316;28;20452;-82
2022/07/31 01:23:03;;;;;;;7.47;4.83;;;17.30;55.00;;;;;;5026518;28;20546;-83
2022/07/31 01:25:40;;;;;;;7.43;4.47;;;17.20;55.40;;;;;;5026234;28;21129;-82
2022/07/31 01:28:13;;;;;;;8.37;4.90;;;17.20;55.80;;;;;;5025474;28;20471;-82
2022/07/31 01:30:46;;;;;;;7.20;5.10;;;17.10;56.10;;;;;;5026325;28;20451;-82
2022/07/31 01:33:18;;;;;;;8.40;5.50;;;17.20;57.30;;;;;;5027009;28;20990;-82
2022/07/31 01:35:49;;;;;;;7.93;5.70;;;17.10;57.80;;;;;;5025491;28;20456;-82
2022/07/31 01:38:21;;;;;;;8.00;5.77;;;17.00;57.80;;;;;;5025479;28;20459;-82
2022/07/31 01:40:54;;;;;;;9.93;6.33;;;17.20;58.20;;;;;;5025033;28;20465;-82
2022/07/31 01:43:23;;;;;;;12.93;5.80;;;17.00;57.70;;;;;;5027623;28;20479;-82
2022/07/31 01:45:55;;;;;;;7.43;5.60;;;17.10;57.70;;;;;;5028145;28;20449;-82
2022/07/31 01:48:22;;;;;;;15.60;4.90;;;17.20;56.40;;;;;;5027335;28;20482;-82
2022/07/31 01:50:52;;;;;;;9.20;5.20;;;17.20;54.80;;;;;;5024890;28;20446;-83
2022/07/31 01:53:21;;;;;;;10.93;4.80;;;17.20;55.60;;;;;;5026202;28;20474;-82
2022/07/31 01:55:51;;;;;;;8.50;5.03;;;17.20;56.30;;;;;;5027173;28;20475;-82
2022/07/31 01:58:20;;;;;;;7.67;4.57;;;17.10;56.40;;;;;;5027315;28;20457;-82
2022/07/31 02:00:49;;;;;;;7.20;5.50;;;17.00;56.10;;;;;;5024841;28;20484;-82
2022/07/31 02:03:17;;;;;;;11.60;5.47;;;17.00;56.60;;;;;;5026608;28;20997;-82
2022/07/31 02:05:45;;;;;;;9.63;6.50;;;16.90;56.00;;;;;;5026149;28;20450;-82
2022/07/31 02:08:13;;;;;;;7.93;5.40;;;17.00;55.80;;;;;;5024396;28;20477;-81
2022/07/31 02:10:42;;;;;;;8.23;4.90;;;17.10;55.70;;;;;;5023606;28;20478;-82
2022/07/31 02:13:11;;;;;;;11.60;5.77;;;17.10;55.90;;;;;;5022851;28;21013;-82
2022/07/31 02:15:38;;;;;;;13.07;5.90;;;17.20;55.90;;;;;;5023494;28;20491;-82
2022/07/31 02:18:05;;;;;;;11.23;6.03;;;17.10;55.70;;;;;;5024302;28;20449;-82
2022/07/31 02:20:33;;;;;;;7.93;5.63;;;17.20;55.70;;;;;;5023877;28;20461;-81
2022/07/31 02:23:01;;;;;;;11.87;5.90;;;17.20;55.70;;;;;;5010981;28;20470;-81
2022/07/31 02:25:28;;;;;;;11.70;6.50;;;17.20;55.70;;;;;;5022370;28;20591;-81
2022/07/31 02:27:56;;;;;;;13.27;6.43;;;17.20;56.00;;;;;;5019506;28;20463;-82
2022/07/31 02:30:25;;;;;;;12.20;6.70;;;17.10;56.20;;;;;;5012793;28;20460;-82
2022/07/31 02:32:53;;;;;;;8.63;5.63;;;17.20;56.60;;;;;;5022525;28;20567;-81
2022/07/31 02:35:21;;;;;;;36.07;20.73;;;17.10;56.60;;;;;;5017225;28;20484;-78
2022/07/31 02:37:52;;;;;;;12.43;6.47;;;17.20;56.30;;;;;;5021371;28;20457;-82
2022/07/31 02:40:19;;;;;;;9.00;4.80;;;17.20;55.70;;;;;;5021738;28;20452;-82
2022/07/31 02:42:47;;;;;;;14.57;5.40;;;17.40;55.00;;;;;;5016592;28;20469;-83
2022/07/31 02:45:16;;;;;;;8.30;6.10;;;17.40;54.50;;;;;;5016791;28;20456;-83
2022/07/31 02:47:43;;;;;;;11.03;5.07;;;17.60;53.50;;;;;;5017094;28;20473;-83
2022/07/31 02:50:10;;;;;;;9.43;4.70;;;17.80;52.20;;;;;;5018373;28;20452;-83
2022/07/31 02:52:37;;;;;;;9.10;5.07;;;17.90;51.80;;;;;;5016939;28;21233;-83
2022/07/31 02:55:07;;;;;;;11.70;4.87;;;17.90;51.30;;;;;;5018336;28;20515;-83
2022/07/31 02:57:34;;;;;;;10.10;5.60;;;18.10;51.30;;;;;;5019237;28;20446;-83
2022/07/31 03:00:00;;;;;;;12.87;5.30;;;18.20;51.00;;;;;;5017722;28;20959;-82
2022/07/31 03:02:28;;;;;;;6.80;4.80;;;18.30;51.00;;;;;;5018303;28;20481;-83
2022/07/31 03:04:55;;;;;;;8.87;4.87;;;18.30;50.80;;;;;;5016040;28;20452;-83
2022/07/31 03:07:22;;;;;;;12.40;5.40;;;18.30;51.40;;;;;;5016365;28;20513;-83
2022/07/31 03:09:49;;;;;;;10.93;4.90;;;18.30;50.70;;;;;;5017055;28;20476;-83
2022/07/31 03:12:17;;;;;;;7.40;4.80;;;18.40;49.80;;;;;;5014985;28;20996;-83
2022/07/31 03:14:44;;;;;;;9.07;4.17;;;18.40;49.70;;;;;;5015824;28;20479;-83
2022/07/31 03:17:11;;;;;;;7.20;3.87;;;18.40;48.50;;;;;;5014875;28;20445;-83
2022/07/31 03:19:38;;;;;;;6.97;3.93;;;18.40;46.90;;;;;;5016462;28;20463;-83
2022/07/31 03:22:05;;;;;;;8.20;4.10;;;18.60;46.00;;;;;;5015366;28;20450;-84
2022/07/31 03:24:31;;;;;;;8.73;3.77;;;18.70;44.90;;;;;;5014416;28;20453;-83
2022/07/31 03:26:59;;;;;;;7.67;3.33;;;18.70;44.90;;;;;;5014547;28;20454;-81
2022/07/31 03:29:36;;;;;;;8.23;4.10;;;18.70;44.70;;;;;;5014583;28;20455;-83
2022/07/31 03:32:04;;;;;;;8.93;3.40;;;18.70;45.50;;;;;;5006630;28;20478;-83
2022/07/31 03:34:31;;;;;;;8.60;3.93;;;18.60;46.30;;;;;;5016028;28;20462;-83
2022/07/31 03:36:58;;;;;;;7.17;3.17;;;18.60;47.30;;;;;;5017561;28;20456;-83
2022/07/31 03:39:25;;;;;;;5.97;3.67;;;18.60;46.90;;;;;;5017466;28;20451;-83
2022/07/31 03:41:53;;;;;;;9.00;3.63;;;18.70;47.20;;;;;;5016821;28;20453;-83
2022/07/31 03:44:20;;;;;;;8.37;3.80;;;18.60;46.40;;;;;;5016585;28;20817;-83
2022/07/31 03:46:48;;;;;;;7.53;3.40;;;18.70;46.20;;;;;;5015257;28;20454;-83
2022/07/31 03:49:16;;;;;;;8.17;3.60;;;18.80;46.00;;;;;;5015946;28;20501;-83
2022/07/31 03:51:43;;;;;;;8.43;2.87;;;18.70;46.00;;;;;;5015290;28;20455;-83
2022/07/31 03:54:10;;;;;;;6.67;2.80;;;18.70;45.90;;;;;;5015379;28;20470;-84
2022/07/31 03:56:38;;;;;;;5.87;3.20;;;18.70;45.60;;;;;;5015889;28;20466;-83
2022/07/31 03:59:05;;;;;;;7.37;3.77;;;18.80;46.10;;;;;;5015955;28;20455;-84
2022/07/31 04:01:33;;;;;;;6.30;3.20;;;18.70;44.90;;;;;;5016553;28;20462;-83
2022/07/31 04:04:02;;;;;;;7.47;3.60;;;18.70;44.70;;;;;;5016478;28;21369;-83
2022/07/31 04:06:29;;;;;;;6.90;3.60;;;18.80;44.90;;;;;;5016067;28;20978;-83
2022/07/31 04:08:56;;;;;;;7.13;3.63;;;18.90;44.80;;;;;;5016362;28;20482;-83
2022/07/31 04:11:22;;;;;;;7.87;3.30;;;18.80;44.50;;;;;;5016165;28;20871;-84
2022/07/31 04:13:49;;;;;;;5.47;3.27;;;19.10;44.30;;;;;;5016797;28;20853;-83
2022/07/31 04:16:16;;;;;;;9.03;2.90;;;19.00;44.30;;;;;;5015544;28;20456;-83
2022/07/31 04:18:42;;;;;;;8.50;3.10;;;18.80;44.40;;;;;;5016691;28;20452;-83
2022/07/31 04:21:10;;;;;;;6.37;3.00;;;19.00;43.40;;;;;;5017084;28;20461;-83
2022/07/31 04:23:37;;;;;;;6.80;2.83;;;19.00;44.00;;;;;;5016235;28;20475;-84
2022/07/31 04:26:04;;;;;;;6.33;3.43;;;19.10;44.40;;;;;;5017524;28;20459;-83
2022/07/31 04:28:32;;;;;;;8.17;3.23;;;19.00;43.40;;;;;;5015599;28;21044;-84
2022/07/31 04:30:59;;;;;;;15.83;3.07;;;19.10;43.50;;;;;;5015268;28;20462;-83
2022/07/31 04:33:26;;;;;;;6.43;3.00;;;19.10;43.60;;;;;;5014387;28;20477;-83
2022/07/31 04:35:52;;;;;;;5.90;3.20;;;19.10;43.60;;;;;;5014180;28;20524;-83
2022/07/31 04:38:20;;;;;;;5.60;2.40;;;19.10;44.40;;;;;;5013911;28;20524;-84
2022/07/31 04:40:48;;;;;;;5.53;2.90;;;19.20;43.80;;;;;;5015499;28;20962;-83
2022/07/31 04:43:16;;;;;;;5.10;2.80;;;19.20;44.20;;;;;;5016357;28;20470;-83
2022/07/31 04:45:42;;;;;;;5.77;3.47;;;19.10;44.70;;;;;;5015708;28;20486;-83
2022/07/31 04:48:10;;;;;;;4.90;2.70;;;19.20;43.60;;;;;;5014421;28;20472;-83
2022/07/31 04:50:37;;;;;;;6.87;3.13;;;19.20;43.60;;;;;;5016198;28;20463;-83
2022/07/31 04:53:04;;;;;;;6.97;3.50;;;19.30;43.70;;;;;;5016275;28;20469;-83
2022/07/31 04:55:32;;;;;;;6.63;3.07;;;19.30;43.70;;;;;;5014643;28;20468;-84
2022/07/31 04:57:59;;;;;;;8.90;3.10;;;19.40;43.80;;;;;;5015971;28;20457;-83
2022/07/31 05:00:25;;;;;;;6.97;3.27;;;19.40;43.80;;;;;;5016176;28;20481;-84
2022/07/31 05:02:52;;;;;;;7.23;3.13;;;19.50;43.90;;;;;;5018405;28;21000;-82
2022/07/31 05:05:19;;;;;;;7.30;3.07;;;19.60;43.10;;;;;;5018865;28;20488;-84
2022/07/31 05:07:46;;;;;;;8.30;3.20;;;19.50;42.80;;;;;;5017811;28;20476;-82
2022/07/31 05:11:21;;;;;;;10.97;3.57;;;19.60;42.70;;;;;;5020970;28;20482;-81
2022/07/31 05:13:01;;;;;;;6.30;3.10;;;19.70;42.70;;;;;;5020197;28;20504;-82
2022/07/31 05:15:28;;;;;;;5.47;2.57;;;19.80;42.20;;;;;;5016071;28;20957;-81
2022/07/31 05:17:54;;;;;;;8.10;2.63;;;19.70;43.10;;;;;;5018834;28;20453;-81
2022/07/31 05:20:21;;;;;;;8.07;2.27;;;19.90;42.20;;;;;;5021364;28;20456;-82
2022/07/31 05:22:51;;;;;;;5.77;2.70;;;19.90;42.50;;;;;;5019626;28;20485;-82
2022/07/31 05:25:18;;;;;;;7.73;2.93;;;20.00;42.00;;;;;;5022434;28;20513;-83
2022/07/31 05:27:44;;;;;;;7.63;2.70;;;20.10;41.60;;;;;;5024907;28;20482;-83
2022/07/31 05:30:13;;;;;;;6.53;3.07;;;20.30;41.70;;;;;;5022820;28;20457;-83
2022/07/31 05:32:40;;;;;;;8.90;3.20;;;20.50;41.10;;;;;;5025556;28;20498;-84
2022/07/31 05:35:07;;;;;;;5.93;2.60;;;20.50;40.70;;;;;;5023242;28;20466;-83
2022/07/31 05:37:34;;;;;;;6.40;2.60;;;20.50;40.20;;;;;;5025205;28;20460;-82
2022/07/31 05:40:04;;;;;;;5.63;2.30;;;20.70;40.30;;;;;;5021489;28;20456;-82
2022/07/31 05:42:40;;;;;;;6.03;2.33;;;20.90;39.40;;;;;;5006322;28;20473;-83
2022/07/31 05:45:08;;;;;;;6.60;2.47;;;21.10;38.50;;;;;;5018304;28;20482;-82
2022/07/31 05:47:38;;;;;;;5.23;2.37;;;21.20;38.00;;;;;;5012524;28;20542;-82
2022/07/31 05:50:07;;;;;;;5.93;1.97;;;21.60;35.80;;;;;;5019123;28;20467;-82
2022/07/31 05:52:33;;;;;;;5.43;2.27;;;21.90;36.20;;;;;;5016717;28;20512;-81
2022/07/31 05:55:02;;;;;;;6.47;2.47;;;22.10;34.20;;;;;;5017890;28;20458;-81
2022/07/31 05:57:28;;;;;;;5.87;2.67;;;22.10;34.20;;;;;;5017290;28;20456;-81
2022/07/31 05:59:55;;;;;;;7.67;2.40;;;22.10;35.00;;;;;;5018814;28;20455;-80
2022/07/31 06:02:22;;;;;;;8.00;2.20;;;22.00;34.40;;;;;;5024315;28;20469;-80
2022/07/31 06:04:50;;;;;;;5.20;2.57;;;21.80;34.90;;;;;;5027045;28;20483;-80
2022/07/31 06:07:17;;;;;;;6.30;2.23;;;21.60;36.40;;;;;;5029193;28;20453;-80
2022/07/31 06:09:43;;;;;;;6.93;2.50;;;21.70;36.80;;;;;;5029122;28;20474;-81
2022/07/31 06:12:10;;;;;;;8.03;2.60;;;21.40;36.60;;;;;;5028717;28;20478;-80
2022/07/31 06:14:37;;;;;;;8.63;3.43;;;21.50;36.70;;;;;;5028631;28;20853;-81
2022/07/31 06:17:05;;;;;;;7.60;2.77;;;21.50;36.70;;;;;;5017780;28;20449;-82
2022/07/31 06:19:32;;;;;;;8.67;2.67;;;21.50;37.10;;;;;;5015761;28;20462;-82
2022/07/31 06:22:00;;;;;;;4.93;2.00;;;21.60;37.70;;;;;;5015502;28;20489;-81
2022/07/31 06:24:27;;;;;;;5.00;2.13;;;21.60;36.80;;;;;;5015454;28;20761;-82
2022/07/31 06:26:57;;;;;;;8.37;2.13;;;21.60;37.80;;;;;;5015743;28;20456;-82
2022/07/31 06:29:23;;;;;;;5.80;2.37;;;21.50;36.70;;;;;;5015797;28;20998;-82
2022/07/31 06:31:50;;;;;;;10.50;3.57;;;21.30;36.60;;;;;;5014859;28;20457;-81
2022/07/31 06:34:17;;;;;;;8.07;2.40;;;21.20;37.20;;;;;;5014906;28;20452;-80
2022/07/31 06:36:49;;;;;;;5.00;2.23;;;21.30;38.40;;;;;;5016808;28;20464;-83
2022/07/31 06:39:18;;;;;;;5.70;2.40;;;21.40;38.20;;;;;;5015452;28;20523;-81
2022/07/31 06:41:45;;;;;;;6.67;2.20;;;21.30;37.90;;;;;;5016233;28;20458;-83
2022/07/31 06:44:12;;;;;;;6.00;2.57;;;21.40;38.20;;;;;;5018575;28;20483;-82
2022/07/31 06:47:22;;;;;;;6.40;2.67;;;21.30;38.90;;;;;;5022355;28;20456;-82
2022/07/31 06:50:09;;;;;;;6.60;3.10;;;21.40;39.40;;;;;;5012724;28;20511;-82
2022/07/31 06:52:37;;;;;;;5.27;2.43;;;21.20;39.70;;;;;;5020292;28;20466;-82
2022/07/31 06:55:07;;;;;;;8.47;3.20;;;21.20;41.20;;;;;;5020411;28;20461;-80
2022/07/31 06:57:34;;;;;;;6.47;2.60;;;21.00;41.60;;;;;;5017952;28;20531;-83
2022/07/31 07:00:35;;;;;;;6.37;2.47;;;21.10;42.10;;;;;;5021493;28;20452;-79
2022/07/31 07:03:02;;;;;;;9.20;2.60;;;21.10;42.10;;;;;;5014130;28;20468;-81
2022/07/31 07:05:29;;;;;;;7.83;2.83;;;21.00;40.80;;;;;;5013185;28;20525;-82
2022/07/31 07:07:56;;;;;;;7.20;2.60;;;21.00;40.70;;;;;;5022152;28;20917;-81
2022/07/31 07:10:24;;;;;;;14.23;2.90;;;20.90;40.50;;;;;;5026481;28;20456;-82
2022/07/31 07:12:51;;;;;;;7.50;2.80;;;20.70;40.60;;;;;;5024138;28;20474;-82
2022/07/31 07:15:32;;;;;;;6.77;2.40;;;20.70;41.50;;;;;;5023906;28;20466;-83
2022/07/31 07:18:01;;;;;;;6.77;3.10;;;20.70;41.40;;;;;;5020478;28;20457;-83
2022/07/31 07:20:28;;;;;;;6.63;2.20;;;20.60;42.20;;;;;;5021360;28;20482;-83
2022/07/31 07:22:55;;;;;;;6.20;2.10;;;20.60;42.60;;;;;;5023896;28;20534;-83
2022/07/31 07:25:23;;;;;;;6.33;2.83;;;20.70;43.30;;;;;;5023175;28;20445;-84
2022/07/31 07:27:50;;;;;;;5.90;2.20;;;20.80;44.60;;;;;;5013585;28;20455;-79
2022/07/31 07:30:19;;;;;;;7.07;2.70;;;20.90;43.00;;;;;;5014075;28;21019;-78
2022/07/31 07:32:46;;;;;;;6.63;2.47;;;21.10;42.40;;;;;;5013412;28;20482;-78
2022/07/31 07:35:13;;;;;;;6.87;2.00;;;21.10;42.40;;;;;;5012901;28;20974;-79
2022/07/31 07:37:40;;;;;;;6.30;2.57;;;21.20;43.00;;;;;;5012830;28;20491;-78
2022/07/31 07:40:08;;;;;;;6.50;2.40;;;21.50;43.00;;;;;;5012075;28;20473;-80
2022/07/31 07:42:37;;;;;;;7.68;2.55;;;21.60;42.80;;;;;;4996309;28;20466;-81
2022/07/31 07:45:04;;;;;;;7.40;2.57;;;21.60;43.00;;;;;;5003263;28;20648;-83
2022/07/31 07:47:31;;;;;;;5.05;2.10;;;21.80;42.90;;;;;;5016215;28;20455;-84
2022/07/31 07:49:58;;;;;;;7.40;2.80;;;21.90;41.10;;;;;;5022545;28;20289;-84
2022/07/31 07:52:24;;;;;;;5.43;2.40;;;22.20;40.80;;;;;;5019775;28;20478;-80
2022/07/31 07:54:51;;;;;;;14.00;3.17;;;22.50;40.30;;;;;;5011469;28;20466;-82
2022/07/31 07:57:19;;;;;;;8.53;2.17;;;22.70;38.80;;;;;;5020038;28;20899;-84
2022/07/31 07:59:48;;;;;;;6.00;2.23;;;22.50;37.60;;;;;;5024873;28;20466;-84
2022/07/31 08:02:14;;;;;;;6.43;2.37;;;22.40;37.50;;;;;;5026064;28;20469;-84
2022/07/31 08:04:41;;;;;;;5.30;2.00;;;22.40;38.70;;;;;;5024234;28;20456;-82
2022/07/31 08:07:09;;;;;;;5.10;2.00;;;22.70;38.40;;;;;;5026526;28;20455;-83
2022/07/31 08:09:36;;;;;;;5.33;2.10;;;23.10;37.90;;;;;;5022415;28;20479;-83
2022/07/31 08:12:04;;;;;;;6.90;3.30;;;23.40;35.40;;;;;;5015708;28;20953;-83
2022/07/31 08:14:31;;;;;;;6.50;2.27;;;23.90;34.40;;;;;;5016138;28;20473;-84
2022/07/31 08:16:59;;;;;;;5.37;2.53;;;24.30;33.30;;;;;;5018070;28;20449;-86
2022/07/31 08:19:26;;;;;;;5.30;2.50;;;24.30;32.30;;;;;;5011547;28;20449;-80
2022/07/31 08:21:54;;;;;;;8.33;2.70;;;24.30;31.70;;;;;;5016077;28;20460;-84
2022/07/31 08:24:22;;;;;;;7.83;2.47;;;24.30;30.70;;;;;;5011557;28;20460;-88
2022/07/31 08:29:35;;;;;;;5.57;2.70;;;24.50;31.90;;;;;;5009290;28;20476;-87
2022/07/31 08:32:04;;;;;;;5.37;2.50;;;24.40;30.10;;;;;;5011584;28;20457;-85
2022/07/31 08:34:31;;;;;;;4.70;1.80;;;24.70;30.40;;;;;;5015657;28;20503;-82
2022/07/31 08:36:58;;;;;;;6.57;2.23;;;24.70;29.30;;;;;;5012035;28;20453;-81
2022/07/31 08:39:25;;;;;;;5.90;2.87;;;24.90;29.10;;;;;;5016633;28;20944;-82
2022/07/31 08:41:51;;;;;;;6.73;2.60;;;25.10;27.00;;;;;;5018688;28;20449;-82
2022/07/31 08:44:18;;;;;;;6.10;2.40;;;25.10;27.20;;;;;;5018847;28;20456;-81
2022/07/31 08:46:46;;;;;;;5.30;2.20;;;25.30;26.90;;;;;;5022712;28;20448;-82
2022/07/31 08:49:16;;;;;;;7.17;2.73;;;25.70;26.50;;;;;;5019518;28;20449;-81
2022/07/31 08:51:44;;;;;;;6.70;1.93;;;26.10;26.40;;;;;;5022005;28;20461;-81
2022/07/31 08:54:11;;;;;;;5.93;2.17;;;26.50;24.10;;;;;;5019070;28;20933;-82
2022/07/31 08:56:39;;;;;;;7.00;1.80;;;26.40;24.10;;;;;;5017886;28;20457;-82
2022/07/31 08:59:07;;;;;;;6.50;2.40;;;26.00;23.80;;;;;;5023467;28;20504;-83
2022/07/31 09:01:35;;;;;;;5.90;2.00;;;25.70;24.70;;;;;;5017460;28;20460;-83
2022/07/31 09:04:03;;;;;;;5.50;2.30;;;26.30;25.50;;;;;;5017952;28;20476;-82
2022/07/31 09:06:31;;;;;;;7.33;2.57;;;26.50;22.60;;;;;;5014717;28;20449;-83
2022/07/31 09:08:57;;;;;;;6.47;2.50;;;26.60;23.40;;;;;;5019917;28;20453;-83
2022/07/31 09:11:24;;;;;;;5.17;1.60;;;26.20;23.00;;;;;;5019245;28;20449;-85
2022/07/31 09:13:55;;;;;;;5.70;1.80;;;26.40;23.50;;;;;;5018140;28;20465;-83
2022/07/31 09:16:22;;;;;;;6.00;2.23;;;26.60;23.20;;;;;;5017525;28;20435;-83
2022/07/31 09:18:55;;;;;;;6.03;2.50;;;26.40;22.20;;;;;;5019525;28;20448;-83
2022/07/31 09:21:22;;;;;;;5.37;2.10;;;26.30;22.50;;;;;;5013161;28;20851;-83
2022/07/31 09:23:50;;;;;;;5.40;1.90;;;26.70;21.00;;;;;;5017412;28;20477;-83
2022/07/31 09:26:17;;;;;;;5.67;1.80;;;27.00;20.10;;;;;;5015570;28;20993;-83
2022/07/31 09:28:47;;;;;;;6.03;2.23;;;27.70;19.50;;;;;;5016676;28;20453;-83
2022/07/31 09:31:14;;;;;;;5.40;1.90;;;27.60;19.90;;;;;;5005490;28;20514;-82
2022/07/31 09:33:43;;;;;;;6.10;2.30;;;27.70;19.20;;;;;;5016834;28;20496;-83
2022/07/31 09:36:10;;;;;;;5.10;1.93;;;28.10;18.00;;;;;;5018659;28;20461;-83
2022/07/31 09:38:38;;;;;;;5.00;1.80;;;28.00;17.50;;;;;;5017026;28;20461;-82
2022/07/31 09:41:11;;;;;;;5.40;1.90;;;27.60;17.20;;;;;;5018137;28;20424;-83
2022/07/31 09:46:58;;;;;;;5.50;1.50;;;27.40;17.10;;;;;;5026590;28;20459;-86
2022/07/31 09:49:49;;;;;;;6.03;1.73;;;27.20;17.00;;;;;;5030721;28;20444;-86
2022/07/31 09:55:24;;;;;;;6.70;1.60;;;27.90;17.40;;;;;;4975371;28;20464;-86
2022/07/31 09:58:29;;;;;;;;;;;;;;;;;;;;;
2022/07/31 10:01:35;;;;;;;4.80;2.23;;;27.80;15.60;;;;;;5033575;28;20450;-87
2022/07/31 10:04:13;;;;;;;5.17;1.40;;;28.20;17.50;;;;;;5035115;28;20535;-87
2022/07/31 10:07:25;;;;;;;5.70;2.13;;;28.50;15.20;;;;;;5034899;28;20511;-86
2022/07/31 10:13:24;;;;;;;5.83;1.70;;;28.90;11.80;;;;;;5030788;28;20846;-85
2022/07/31 10:16:09;;;;;;;4.60;1.50;;;28.80;11.70;;;;;;5025719;28;20423;-85
2022/07/31 10:18:40;;;;;;;4.57;1.63;;;28.30;13.50;;;;;;5035793;28;20971;-85
2022/07/31 10:21:12;;;;;;;5.00;1.57;;;28.30;14.90;;;;;;5035917;28;20447;-85
2022/07/31 10:23:43;;;;;;;6.07;1.53;;;28.40;14.90;;;;;;5036089;28;20846;-85
2022/07/31 10:26:17;;;;;;;10.70;1.60;;;28.70;12.50;;;;;;5035672;28;20459;-85
2022/07/31 10:28:48;;;;;;;5.40;1.80;;;28.20;12.00;;;;;;5036783;28;20448;-85
2022/07/31 10:31:15;;;;;;;5.50;1.83;;;29.10;12.80;;;;;;5036081;28;20444;-85
2022/07/31 10:33:43;;;;;;;5.80;1.67;;;29.90;9.60;;;;;;5035823;28;20472;-85
2022/07/31 10:36:20;;;;;;;5.73;1.50;;;30.50;6.70;;;;;;5034764;28;20456;-85
2022/07/31 10:38:55;;;;;;;6.03;1.57;;;30.40;8.00;;;;;;5034059;28;20454;-85
2022/07/31 10:41:34;;;;;;;4.47;1.60;;;30.40;8.50;;;;;;5035158;28;20448;-85
2022/07/31 10:44:18;;;;;;;4.97;1.70;;;29.60;6.80;;;;;;5033541;28;20491;-85
2022/07/31 10:46:45;;;;;;;6.47;2.30;;;29.40;8.10;;;;;;5035094;28;20451;-85
2022/07/31 10:49:12;;;;;;;5.77;1.97;;;28.90;10.00;;;;;;5035226;28;20448;-86
2022/07/31 10:51:59;;;;;;;6.20;2.03;;;28.50;10.20;;;;;;5035098;28;20945;-85
2022/07/31 10:54:32;;;;;;;8.53;2.10;;;28.50;11.30;;;;;;5035241;28;20923;-86
2022/07/31 10:57:02;;;;;;;9.37;2.20;;;28.90;12.30;;;;;;5034242;28;20539;-85
2022/07/31 10:59:30;;;;;;;5.40;2.40;;;29.20;10.40;;;;;;5034735;28;20903;-85
2022/07/31 11:01:58;;;;;;;5.93;1.80;;;30.40;9.50;;;;;;5034410;28;20431;-85
2022/07/31 11:04:29;;;;;;;6.50;1.67;;;30.90;5.70;;;;;;5038041;28;20539;-84
2022/07/31 11:06:57;;;;;;;7.37;2.60;;;30.90;5.00;;;;;;5040829;28;20452;-85
2022/07/31 11:09:29;;;;;;;5.60;1.83;;;30.30;3.20;;;;;;5035086;28;20452;-86
2022/07/31 11:12:23;;;;;;;4.67;1.73;;;30.50;3.30;;;;;;5033505;28;20491;-86
2022/07/31 11:14:52;;;;;;;5.97;1.77;;;31.10;4.40;;;;;;5029314;28;20744;-86
2022/07/31 11:17:54;;;;;;;5.60;1.90;;;29.30;5.90;;;;;;5032323;28;20498;-86
2022/07/31 11:20:45;;;;;;;6.93;1.90;;;29.20;6.10;;;;;;5025543;28;20959;-87
2022/07/31 11:23:59;;;;;;;7.80;2.40;;;28.70;6.60;;;;;;5033236;28;20476;-87
2022/07/31 11:29:40;;;;;;;5.27;2.07;;;27.90;9.70;;;;;;5032491;28;20456;-85
2022/07/31 11:32:26;;;;;;;8.57;2.40;;;28.40;10.30;;;;;;5032824;28;20574;-86
2022/07/31 11:34:55;;;;;;;5.30;2.40;;;28.90;9.10;;;;;;5031144;28;20479;-86
2022/07/31 11:37:25;;;;;;;8.83;2.30;;;29.10;7.90;;;;;;5032092;28;20813;-86
2022/07/31 11:39:58;;;;;;;5.83;2.30;;;29.20;8.20;;;;;;5033053;28;20554;-87
2022/07/31 11:42:28;;;;;;;6.60;2.17;;;29.40;5.10;;;;;;5032966;28;20593;-85
2022/07/31 11:45:04;;;;;;;12.40;2.50;;;28.70;7.10;;;;;;5030161;28;20465;-86
2022/07/31 11:47:49;;;;;;;5.30;2.43;;;28.70;7.80;;;;;;5030856;28;20479;-86
2022/07/31 11:50:36;;;;;;;5.20;2.00;;;28.70;7.80;;;;;;5033199;28;20860;-87
2022/07/31 11:53:05;;;;;;;6.27;2.00;;;28.90;6.00;;;;;;5032755;28;20472;-85
2022/07/31 11:55:47;;;;;;;6.43;2.73;;;28.90;7.50;;;;;;5031682;28;20452;-86
2022/07/31 11:58:20;;;;;;;5.73;2.73;;;29.20;6.20;;;;;;5032771;28;20522;-86
2022/07/31 12:00:58;;;;;;;7.87;2.80;;;29.60;6.30;;;;;;5031464;28;20504;-86
2022/07/31 12:03:39;;;;;;;6.63;2.30;;;30.10;3.80;;;;;;5032341;28;20475;-86
2022/07/31 12:06:18;;;;;;;9.30;2.50;;;31.10;3.00;;;;;;5031490;28;20437;-86
2022/07/31 12:08:48;;;;;;;6.30;2.47;;;32.70;1.00;;;;;;5032308;28;20513;-86
2022/07/31 12:11:31;;;;;;;7.20;2.20;;;32.80;1.00;;;;;;5031271;28;20430;-86
2022/07/31 12:13:59;;;;;;;10.53;2.67;;;32.50;1.00;;;;;;5031602;28;20549;-87
2022/07/31 12:16:26;;;;;;;6.77;2.50;;;31.40;1.00;;;;;;5037413;28;20456;-83
2022/07/31 12:19:06;;;;;;;12.20;5.23;;;30.90;1.10;;;;;;5032320;28;20433;-85
2022/07/31 12:21:42;;;;;;;5.03;2.10;;;30.40;1.60;;;;;;5033051;28;20548;-86
2022/07/31 12:24:19;;;;;;;4.70;2.00;;;30.10;3.00;;;;;;5031765;28;21163;-87
2022/07/31 12:26:50;;;;;;;7.80;2.77;;;29.60;5.30;;;;;;5031197;28;20478;-86
2022/07/31 12:29:18;;;;;;;6.73;2.90;;;29.00;4.20;;;;;;5032474;28;20487;-86
2022/07/31 12:31:47;;;;;;;9.30;2.03;;;28.70;6.70;;;;;;5032470;28;20470;-86
2022/07/31 12:34:32;;;;;;;8.30;2.50;;;28.90;7.30;;;;;;5031486;28;20472;-86
2022/07/31 12:37:04;;;;;;;5.93;2.63;;;28.60;6.60;;;;;;5031755;28;21183;-86
2022/07/31 12:39:37;;;;;;;6.77;2.60;;;28.90;6.90;;;;;;5033227;28;20452;-86
2022/07/31 12:42:04;;;;;;;5.40;2.60;;;28.90;7.10;;;;;;5032812;28;20543;-86
2022/07/31 12:44:31;;;;;;;6.17;2.97;;;29.10;5.90;;;;;;5033399;28;20539;-84
2022/07/31 12:46:58;;;;;;;6.57;2.90;;;29.20;6.80;;;;;;5032039;28;20448;-86
2022/07/31 12:49:25;;;;;;;5.53;2.60;;;29.10;6.90;;;;;;5030749;28;20479;-86
2022/07/31 12:51:53;;;;;;;8.07;2.60;;;28.80;7.50;;;;;;5030487;28;20422;-86
2022/07/31 12:54:20;;;;;;;6.43;2.70;;;28.90;7.10;;;;;;5030867;28;20458;-86
2022/07/31 12:56:46;;;;;;;6.10;2.70;;;28.90;7.30;;;;;;5029928;28;20547;-86
2022/07/31 12:59:14;;;;;;;6.10;2.80;;;29.50;6.20;;;;;;5033302;28;20448;-85
2022/07/31 13:01:40;;;;;;;7.60;2.37;;;30.10;6.40;;;;;;5031119;28;20542;-85
2022/07/31 13:04:08;;;;;;;6.27;3.13;;;30.00;4.60;;;;;;5033190;28;20472;-86
2022/07/31 13:06:36;;;;;;;6.83;2.77;;;30.40;4.50;;;;;;5031126;28;20497;-88
2022/07/31 13:09:04;;;;;;;5.53;2.60;;;30.10;3.00;;;;;;5030235;28;20452;-87
2022/07/31 13:11:34;;;;;;;5.80;2.70;;;30.60;3.30;;;;;;5029813;28;20456;-88
2022/07/31 13:14:01;;;;;;;7.00;2.90;;;30.70;3.40;;;;;;5030591;28;20897;-87
2022/07/31 13:16:29;;;;;;;5.73;2.67;;;31.40;1.60;;;;;;5030392;28;20452;-87
2022/07/31 13:18:56;;;;;;;5.13;2.50;;;31.90;1.00;;;;;;5031132;28;20430;-86